Time;durP1;ratioP1;P1;durP2;ratioP2;P2;SDS_P1;SDS_P2;PMS_P1;PMS_P2;Temp;Humidity;BMP_temperature;BMP_pressure;BME280_temperature;BME280_humidity;BME280_pressure;Samples;Min_cycle;Max_cycle;Signal;HPM_P1;HPM_P2
2021/09/22 00:02:12;;;;;;;16.87;3.57;;;12.00;99.90;;;;;;5045916;28;20344;-51
2021/09/22 00:04:38;;;;;;;16.63;3.83;;;12.00;99.90;;;;;;5039634;28;20208;-56
2021/09/22 00:07:05;;;;;;;10.70;3.30;;;12.00;99.90;;;;;;5036341;28;20904;-52
2021/09/22 00:09:32;;;;;;;19.47;4.10;;;12.00;99.90;;;;;;5037188;28;20210;-49
2021/09/22 00:11:58;;;;;;;14.77;3.67;;;12.00;99.90;;;;;;5036496;28;20204;-54
2021/09/22 00:14:26;;;;;;;15.87;3.73;;;12.00;99.90;;;;;;5043291;28;20204;-51
2021/09/22 00:16:52;;;;;;;14.30;4.00;;;12.00;99.90;;;;;;5046019;28;20226;-59
2021/09/22 00:19:20;;;;;;;14.77;3.33;;;12.00;99.90;;;;;;5044192;28;20203;-52
2021/09/22 00:21:47;;;;;;;23.47;3.37;;;11.90;99.90;;;;;;5040438;28;20543;-59
2021/09/22 00:24:14;;;;;;;11.87;3.17;;;11.90;99.90;;;;;;5031182;28;20792;-50
2021/09/22 00:26:41;;;;;;;23.90;3.63;;;11.90;99.90;;;;;;5044652;28;20223;-49
2021/09/22 00:29:07;;;;;;;11.30;3.17;;;11.90;99.90;;;;;;5037915;28;20428;-56
2021/09/22 00:31:36;;;;;;;14.50;3.33;;;12.00;99.90;;;;;;5063865;28;20222;-53
2021/09/22 00:34:03;;;;;;;19.27;3.27;;;12.00;99.90;;;;;;5038858;28;20207;-51
2021/09/22 00:36:34;;;;;;;12.27;3.53;;;12.00;99.90;;;;;;5055217;28;20703;-50
2021/09/22 00:39:01;;;;;;;21.13;3.70;;;11.90;99.90;;;;;;5030267;28;21144;-53
2021/09/22 00:41:28;;;;;;;23.03;4.30;;;11.90;99.90;;;;;;5041020;28;20195;-52
2021/09/22 00:43:54;;;;;;;17.57;3.80;;;11.90;99.90;;;;;;5042503;28;20199;-51
2021/09/22 00:46:21;;;;;;;18.13;2.97;;;11.90;99.90;;;;;;5056461;28;20222;-52
2021/09/22 00:48:48;;;;;;;17.50;4.10;;;11.90;99.90;;;;;;5043999;28;20230;-51
2021/09/22 00:51:15;;;;;;;17.60;3.37;;;11.80;99.90;;;;;;5048124;28;20199;-52
2021/09/22 00:53:43;;;;;;;17.40;3.07;;;11.90;99.90;;;;;;5045901;28;20218;-53
2021/09/22 00:56:10;;;;;;;15.80;3.30;;;11.80;99.90;;;;;;5049098;28;20215;-56
2021/09/22 00:58:37;;;;;;;17.93;3.47;;;11.80;99.90;;;;;;5055857;28;20191;-55
2021/09/22 01:01:04;;;;;;;16.00;3.77;;;11.80;99.90;;;;;;5061590;28;20318;-55
2021/09/22 01:03:31;;;;;;;11.07;3.17;;;11.80;99.90;;;;;;5035245;28;20620;-55
2021/09/22 01:06:00;;;;;;;17.50;3.40;;;11.80;99.90;;;;;;5039266;28;20210;-53
2021/09/22 01:08:28;;;;;;;12.80;3.07;;;11.80;99.90;;;;;;5046487;28;20234;-54
2021/09/22 01:10:57;;;;;;;19.37;3.47;;;11.80;99.90;;;;;;5021776;28;20568;-52
2021/09/22 01:13:24;;;;;;;10.33;2.70;;;11.70;99.90;;;;;;5039870;28;20207;-51
2021/09/22 01:15:51;;;;;;;15.00;2.67;;;11.70;99.90;;;;;;5061164;28;20296;-50
2021/09/22 01:18:22;;;;;;;13.87;3.80;;;11.70;99.90;;;;;;5062795;28;20706;-52
2021/09/22 01:20:51;;;;;;;13.40;2.50;;;11.60;99.90;;;;;;5051287;28;20191;-57
2021/09/22 01:23:22;;;;;;;9.93;2.30;;;11.60;99.90;;;;;;5024715;28;20294;-53
2021/09/22 01:25:52;;;;;;;10.50;2.53;;;11.60;99.90;;;;;;5026646;28;20226;-52
2021/09/22 01:28:20;;;;;;;16.77;2.73;;;11.60;99.90;;;;;;5042017;28;20223;-51
2021/09/22 01:30:50;;;;;;;8.27;2.40;;;11.70;99.90;;;;;;5047778;28;20199;-49
2021/09/22 01:33:18;;;;;;;9.70;2.67;;;11.60;99.90;;;;;;5036353;28;20288;-54
2021/09/22 01:35:55;;;;;;;9.53;2.70;;;11.50;99.90;;;;;;5035350;28;20203;-52
2021/09/22 01:38:28;;;;;;;11.23;2.60;;;11.50;99.90;;;;;;5042512;28;20191;-50
2021/09/22 01:41:15;;;;;;;17.00;2.87;;;11.40;99.90;;;;;;5049125;28;20198;-55
2021/09/22 01:43:56;;;;;;;15.40;2.70;;;11.30;99.90;;;;;;5029500;28;20984;-54
2021/09/22 01:46:35;;;;;;;11.10;3.50;;;11.30;99.90;;;;;;5044553;28;20223;-53
2021/09/22 01:49:02;;;;;;;12.83;2.93;;;11.20;99.90;;;;;;5040076;28;20219;-53
2021/09/22 01:51:29;;;;;;;12.67;2.50;;;11.20;99.90;;;;;;5033330;28;20566;-50
2021/09/22 01:54:08;;;;;;;6.73;2.13;;;11.20;99.90;;;;;;5043714;28;20242;-52
2021/09/22 01:56:39;;;;;;;7.77;2.20;;;11.20;99.90;;;;;;5033909;28;20219;-49
2021/09/22 01:59:07;;;;;;;8.23;2.60;;;11.20;99.90;;;;;;5036872;28;20206;-55
2021/09/22 02:01:54;;;;;;;10.53;2.50;;;11.10;99.90;;;;;;5039032;28;20207;-52
2021/09/22 02:04:32;;;;;;;10.00;2.33;;;11.10;99.90;;;;;;5036363;28;20226;-52
2021/09/22 02:07:05;;;;;;;10.73;2.73;;;11.10;99.90;;;;;;5034732;28;20223;-57
2021/09/22 02:09:33;;;;;;;9.03;2.80;;;11.10;99.90;;;;;;5040300;28;20211;-56
2021/09/22 02:12:03;;;;;;;13.97;3.77;;;11.10;99.90;;;;;;5037609;28;20211;-57
2021/09/22 02:14:32;;;;;;;11.33;2.90;;;11.00;99.90;;;;;;5024890;28;20207;-55
2021/09/22 02:16:58;;;;;;;7.30;2.50;;;11.00;99.90;;;;;;5042259;28;20250;-57
2021/09/22 02:19:28;;;;;;;9.10;2.30;;;11.00;99.90;;;;;;5038374;28;20184;-54
2021/09/22 02:22:07;;;;;;;13.43;2.93;;;11.00;99.90;;;;;;5042997;28;20224;-56
2021/09/22 02:24:46;;;;;;;11.60;2.67;;;11.00;99.90;;;;;;5040916;28;20286;-48
2021/09/22 02:27:14;;;;;;;10.47;2.80;;;11.00;99.90;;;;;;5035541;28;20231;-55
2021/09/22 02:29:42;;;;;;;10.00;2.40;;;11.00;99.90;;;;;;5025751;28;20214;-50
2021/09/22 02:32:10;;;;;;;13.43;3.13;;;11.00;99.90;;;;;;5038509;28;20207;-56
2021/09/22 02:34:38;;;;;;;12.87;2.97;;;11.10;99.90;;;;;;5039808;28;20917;-54
2021/09/22 02:37:05;;;;;;;14.37;3.53;;;11.00;99.90;;;;;;5043294;28;20223;-51
2021/09/22 02:39:40;;;;;;;9.77;2.50;;;11.00;99.90;;;;;;5044595;28;20195;-51
2021/09/22 02:42:08;;;;;;;9.33;2.37;;;10.90;99.90;;;;;;5046071;28;20202;-51
2021/09/22 02:44:35;;;;;;;9.40;3.13;;;10.90;99.90;;;;;;5021883;28;20206;-51
2021/09/22 02:47:02;;;;;;;15.13;2.93;;;10.90;99.90;;;;;;5045727;28;20691;-52
2021/09/22 02:49:29;;;;;;;13.00;3.00;;;10.90;99.90;;;;;;5038777;28;20212;-48
2021/09/22 02:51:59;;;;;;;7.07;3.00;;;10.90;99.90;;;;;;5052456;28;20710;-51
2021/09/22 02:54:26;;;;;;;12.73;3.10;;;10.90;99.90;;;;;;5061444;28;20198;-51
2021/09/22 02:57:13;;;;;;;17.13;2.77;;;10.90;99.90;;;;;;5041649;28;20237;-56
2021/09/22 02:59:40;;;;;;;11.30;3.53;;;10.80;99.90;;;;;;5035718;28;20203;-53
2021/09/22 03:02:07;;;;;;;8.97;2.40;;;10.80;99.90;;;;;;5044193;28;20191;-49
2021/09/22 03:04:33;;;;;;;11.30;2.70;;;10.80;99.90;;;;;;5050521;28;20403;-53
2021/09/22 03:07:00;;;;;;;10.70;3.10;;;10.80;99.90;;;;;;5066964;28;20683;-53
2021/09/22 03:09:27;;;;;;;11.80;3.20;;;10.80;99.90;;;;;;5056549;28;20222;-53
2021/09/22 03:11:54;;;;;;;13.50;3.57;;;10.90;99.90;;;;;;5055323;28;20290;-55
2021/09/22 03:14:22;;;;;;;12.20;3.70;;;11.00;99.90;;;;;;5026712;28;20207;-53
2021/09/22 03:16:51;;;;;;;11.47;3.20;;;11.00;99.90;;;;;;5055695;28;20215;-52
2021/09/22 03:19:18;;;;;;;19.87;4.47;;;10.90;99.90;;;;;;5047936;28;20191;-57
2021/09/22 03:21:45;;;;;;;17.07;3.40;;;10.90;99.90;;;;;;5042371;28;20196;-50
2021/09/22 03:24:12;;;;;;;12.93;3.40;;;10.90;99.90;;;;;;5057147;28;20803;-52
2021/09/22 03:26:38;;;;;;;17.60;3.77;;;10.90;99.90;;;;;;5043083;28;20318;-50
2021/09/22 03:29:06;;;;;;;13.73;4.13;;;10.80;99.90;;;;;;5039188;28;20276;-56
2021/09/22 03:31:34;;;;;;;11.43;3.73;;;10.80;99.90;;;;;;5019000;28;20195;-52
2021/09/22 03:34:03;;;;;;;9.60;3.50;;;10.90;99.90;;;;;;5030915;28;20279;-50
2021/09/22 03:36:29;;;;;;;15.77;4.17;;;10.80;99.90;;;;;;5042569;28;20215;-55
2021/09/22 03:38:56;;;;;;;14.30;3.73;;;10.80;99.90;;;;;;5056097;28;20202;-48
2021/09/22 03:41:25;;;;;;;11.43;3.53;;;10.90;99.90;;;;;;5064854;28;20730;-49
2021/09/22 03:43:52;;;;;;;11.43;3.13;;;10.80;99.90;;;;;;5037069;28;20203;-52
2021/09/22 03:46:18;;;;;;;8.73;3.00;;;10.90;99.90;;;;;;5044542;28;20227;-54
2021/09/22 03:48:48;;;;;;;10.47;3.50;;;10.90;99.90;;;;;;5046646;28;20215;-50
2021/09/22 03:51:16;;;;;;;11.47;3.53;;;10.80;99.90;;;;;;5038036;28;20218;-49
2021/09/22 03:53:46;;;;;;;8.23;3.00;;;10.80;99.90;;;;;;5059885;28;20286;-51
2021/09/22 03:56:13;;;;;;;10.00;2.83;;;10.80;99.90;;;;;;5043399;28;20306;-50
2021/09/22 03:58:40;;;;;;;9.87;3.33;;;10.80;99.90;;;;;;5032624;28;20637;-51
2021/09/22 04:01:07;;;;;;;10.40;2.90;;;10.80;99.90;;;;;;5022524;28;20216;-49
2021/09/22 04:03:34;;;;;;;12.20;3.20;;;10.80;99.90;;;;;;5054198;28;20626;-53
2021/09/22 04:06:02;;;;;;;9.27;3.33;;;10.70;99.90;;;;;;5040989;28;20199;-50
2021/09/22 04:08:29;;;;;;;11.63;2.80;;;10.60;99.90;;;;;;5050248;28;20218;-50
2021/09/22 04:10:55;;;;;;;8.27;3.20;;;10.60;99.90;;;;;;5056352;28;20201;-54
2021/09/22 04:13:22;;;;;;;8.93;3.33;;;10.50;99.90;;;;;;5064386;28;20584;-48
2021/09/22 04:15:53;;;;;;;9.27;3.07;;;10.50;99.90;;;;;;5049544;28;20581;-59
2021/09/22 04:18:22;;;;;;;12.87;3.20;;;10.50;99.90;;;;;;5031950;28;20204;-49
2021/09/22 04:20:49;;;;;;;9.50;2.30;;;10.50;99.90;;;;;;5034419;28;20210;-57
2021/09/22 04:23:18;;;;;;;8.30;3.33;;;10.50;99.90;;;;;;5035966;28;20211;-54
2021/09/22 04:25:44;;;;;;;9.27;3.03;;;10.50;99.90;;;;;;5041986;28;20203;-56
2021/09/22 04:28:12;;;;;;;9.57;3.43;;;10.50;99.90;;;;;;5057756;28;20187;-48
2021/09/22 04:30:57;;;;;;;8.37;3.10;;;10.50;99.90;;;;;;5031155;28;20215;-49
2021/09/22 04:33:43;;;;;;;11.03;3.10;;;10.50;99.90;;;;;;5027111;28;20222;-55
2021/09/22 04:36:29;;;;;;;10.63;3.23;;;10.50;99.90;;;;;;5045583;28;20229;-52
2021/09/22 04:39:16;;;;;;;11.17;3.07;;;10.50;99.90;;;;;;5028782;28;20198;-59
2021/09/22 04:42:01;;;;;;;8.00;2.67;;;10.60;99.90;;;;;;5037912;28;20199;-50
2021/09/22 04:44:47;;;;;;;11.70;2.77;;;10.50;99.90;;;;;;5033399;28;20706;-60
2021/09/22 04:47:32;;;;;;;12.60;3.40;;;10.50;99.90;;;;;;5025326;28;20628;-53
2021/09/22 04:50:18;;;;;;;9.87;3.00;;;10.60;99.90;;;;;;5043943;28;20257;-55
2021/09/22 04:53:03;;;;;;;11.27;2.93;;;10.60;99.90;;;;;;5037183;28;20213;-49
2021/09/22 04:55:50;;;;;;;9.27;2.80;;;10.50;99.90;;;;;;5053013;28;20213;-50
2021/09/22 04:58:35;;;;;;;5.63;2.67;;;10.50;99.90;;;;;;5066924;28;20286;-53
2021/09/22 05:01:21;;;;;;;6.53;2.57;;;10.40;99.90;;;;;;5038240;28;20214;-54
2021/09/22 05:04:06;;;;;;;11.37;3.57;;;10.40;99.90;;;;;;5023283;28;20930;-54
2021/09/22 05:06:51;;;;;;;7.43;2.47;;;10.50;99.90;;;;;;5040790;28;20238;-54
2021/09/22 05:09:36;;;;;;;7.13;2.43;;;10.50;99.90;;;;;;5034381;28;20800;-55
2021/09/22 05:12:22;;;;;;;6.83;2.87;;;10.50;99.90;;;;;;5036207;28;20218;-53
2021/09/22 05:15:09;;;;;;;7.53;2.77;;;10.50;99.90;;;;;;5042015;28;20698;-55
2021/09/22 05:17:55;;;;;;;13.80;3.67;;;10.60;99.90;;;;;;5050507;28;20697;-55
2021/09/22 05:20:40;;;;;;;7.87;2.80;;;10.60;99.90;;;;;;5020690;28;20210;-52
2021/09/22 05:23:25;;;;;;;13.63;3.57;;;10.60;99.90;;;;;;5041809;28;20191;-50
2021/09/22 05:26:10;;;;;;;9.47;3.33;;;10.70;99.90;;;;;;5032192;28;20583;-56
2021/09/22 05:28:57;;;;;;;12.80;3.43;;;10.70;99.90;;;;;;5042021;28;20235;-50
2021/09/22 05:31:43;;;;;;;13.83;3.33;;;10.80;99.90;;;;;;5034824;28;20210;-53
2021/09/22 05:34:28;;;;;;;17.57;4.20;;;10.80;99.90;;;;;;5029725;28;20294;-53
2021/09/22 05:37:14;;;;;;;17.83;3.47;;;10.80;99.90;;;;;;5032749;28;20257;-51
2021/09/22 05:39:59;;;;;;;21.20;4.47;;;10.90;99.90;;;;;;5047713;28;20210;-51
2021/09/22 05:42:45;;;;;;;16.63;4.13;;;10.90;99.90;;;;;;5044892;28;20222;-51
2021/09/22 05:45:31;;;;;;;15.93;4.97;;;10.90;99.90;;;;;;5030281;28;20207;-57
2021/09/22 05:48:16;;;;;;;13.37;4.00;;;11.00;99.90;;;;;;5029198;28;20702;-56
2021/09/22 05:51:02;;;;;;;13.53;3.40;;;11.00;99.90;;;;;;5031399;28;20260;-55
2021/09/22 05:53:48;;;;;;;7.37;4.10;;;11.00;99.90;;;;;;5042599;28;20564;-52
2021/09/22 05:56:33;;;;;;;9.00;3.00;;;11.00;99.90;;;;;;5042521;28;20237;-50
2021/09/22 05:59:18;;;;;;;11.73;3.83;;;11.00;99.90;;;;;;5039417;28;20249;-48
2021/09/22 06:02:05;;;;;;;14.80;2.93;;;11.10;99.90;;;;;;5030599;28;20937;-53
2021/09/22 06:04:50;;;;;;;9.63;2.87;;;11.00;99.90;;;;;;5040907;28;20213;-53
2021/09/22 06:07:35;;;;;;;7.20;2.90;;;11.00;99.90;;;;;;5034763;28;20738;-52
2021/09/22 06:10:21;;;;;;;8.60;3.07;;;11.00;99.90;;;;;;5029865;28;20241;-48
2021/09/22 06:12:59;;;;;;;7.57;3.10;;;11.00;99.90;;;;;;5035236;28;20233;-53
2021/09/22 06:15:26;;;;;;;10.53;3.37;;;11.00;99.90;;;;;;5047165;28;20231;-53
2021/09/22 06:17:58;;;;;;;11.80;3.90;;;11.00;99.90;;;;;;5034360;28;20320;-55
2021/09/22 06:20:25;;;;;;;10.80;3.23;;;11.00;99.90;;;;;;5048602;28;20205;-53
2021/09/22 06:22:51;;;;;;;11.00;3.53;;;11.00;99.90;;;;;;5025794;28;20207;-59
2021/09/22 06:25:18;;;;;;;9.57;4.00;;;11.10;99.90;;;;;;5037688;28;20784;-50
2021/09/22 06:27:46;;;;;;;15.97;4.27;;;11.10;99.90;;;;;;5038748;28;20226;-58
2021/09/22 06:30:13;;;;;;;13.00;4.10;;;11.10;99.90;;;;;;5044605;28;20230;-49
2021/09/22 06:32:43;;;;;;;14.97;3.97;;;11.20;99.90;;;;;;5034623;28;20210;-58
2021/09/22 06:35:33;;;;;;;17.07;3.87;;;11.20;99.90;;;;;;5041402;28;20298;-52
2021/09/22 06:38:03;;;;;;;18.77;4.47;;;11.30;99.90;;;;;;5021523;28;20228;-56
2021/09/22 06:40:37;;;;;;;16.07;4.90;;;11.50;99.90;;;;;;5036846;28;20317;-53
2021/09/22 06:43:04;;;;;;;13.20;4.40;;;11.60;99.90;;;;;;5025135;28;20195;-58
2021/09/22 06:45:30;;;;;;;22.87;5.77;;;11.70;99.90;;;;;;5041039;28;20206;-53
2021/09/22 06:47:57;;;;;;;14.53;4.70;;;11.70;99.90;;;;;;5042479;28;20227;-53
2021/09/22 06:50:24;;;;;;;17.87;4.77;;;11.80;99.90;;;;;;5046319;28;20219;-51
2021/09/22 06:52:53;;;;;;;12.43;5.10;;;11.90;99.90;;;;;;5046051;28;20218;-60
2021/09/22 06:55:19;;;;;;;13.27;4.73;;;12.00;99.90;;;;;;5018787;28;20207;-49
2021/09/22 06:57:46;;;;;;;25.67;6.00;;;12.10;99.90;;;;;;5030602;28;20219;-53
2021/09/22 07:00:14;;;;;;;21.97;5.63;;;12.20;99.90;;;;;;5032995;28;20687;-55
2021/09/22 07:02:41;;;;;;;15.33;5.40;;;12.30;99.90;;;;;;5039402;28;20233;-54
2021/09/22 07:05:09;;;;;;;11.83;4.43;;;12.40;99.90;;;;;;5038073;28;20200;-52
2021/09/22 07:07:36;;;;;;;17.60;5.60;;;12.50;99.90;;;;;;5037916;28;20215;-55
2021/09/22 07:10:05;;;;;;;16.57;6.07;;;12.50;99.90;;;;;;5019590;28;20719;-54
2021/09/22 07:12:32;;;;;;;13.10;5.23;;;12.70;99.90;;;;;;5038813;28;20192;-48
2021/09/22 07:14:59;;;;;;;24.07;6.07;;;12.70;99.90;;;;;;5030541;28;20211;-55
2021/09/22 07:17:27;;;;;;;26.17;6.50;;;12.80;99.90;;;;;;5019213;28;20219;-50
2021/09/22 07:19:54;;;;;;;20.87;6.03;;;12.90;99.90;;;;;;5048738;28;20668;-53
2021/09/22 07:22:21;;;;;;;18.27;5.80;;;12.90;99.90;;;;;;5025005;28;20238;-53
2021/09/22 07:24:49;;;;;;;14.77;6.00;;;13.00;99.90;;;;;;5016492;28;20207;-54
2021/09/22 07:27:17;;;;;;;32.13;6.03;;;13.10;99.90;;;;;;5043575;28;20219;-55
2021/09/22 07:29:44;;;;;;;16.93;5.50;;;13.20;99.90;;;;;;5034646;28;20223;-52
2021/09/22 07:32:11;;;;;;;12.07;5.20;;;13.20;99.90;;;;;;5038287;28;20200;-53
2021/09/22 07:34:38;;;;;;;12.87;5.37;;;13.30;99.90;;;;;;5038809;28;20195;-51
2021/09/22 07:37:09;;;;;;;21.67;5.97;;;13.40;99.90;;;;;;5025616;28;20238;-51
2021/09/22 07:39:38;;;;;;;20.77;5.93;;;13.50;99.90;;;;;;5031742;28;20250;-57
2021/09/22 07:42:05;;;;;;;21.40;5.97;;;13.50;99.90;;;;;;5028272;28;20274;-50
2021/09/22 07:44:33;;;;;;;18.03;5.60;;;13.60;99.90;;;;;;5044723;28;20202;-56
2021/09/22 07:46:59;;;;;;;14.00;5.50;;;13.70;99.90;;;;;;5038264;28;20222;-52
2021/09/22 07:49:26;;;;;;;16.40;6.40;;;13.80;99.90;;;;;;5038695;28;20219;-47
2021/09/22 07:51:53;;;;;;;18.90;5.97;;;13.80;99.90;;;;;;5029265;28;20195;-52
2021/09/22 07:54:19;;;;;;;14.60;5.67;;;13.90;99.90;;;;;;5056735;28;20214;-51
2021/09/22 07:56:46;;;;;;;15.00;5.27;;;13.90;99.90;;;;;;5034394;28;20226;-51
2021/09/22 07:59:13;;;;;;;14.30;6.00;;;14.00;99.90;;;;;;5038524;28;20214;-55
2021/09/22 08:01:41;;;;;;;23.83;6.33;;;14.10;99.90;;;;;;5040697;28;20560;-58
2021/09/22 08:04:07;;;;;;;16.00;5.97;;;14.20;99.90;;;;;;5043682;28;20683;-50
2021/09/22 08:06:34;;;;;;;13.60;6.17;;;14.20;99.90;;;;;;5044143;28;20219;-58
2021/09/22 08:09:01;;;;;;;13.43;5.93;;;14.30;99.90;;;;;;5035388;28;20215;-49
2021/09/22 08:11:28;;;;;;;15.63;5.53;;;14.40;99.90;;;;;;5023932;28;20212;-52
2021/09/22 08:13:55;;;;;;;19.73;6.97;;;14.60;99.90;;;;;;5037361;28;20202;-50
2021/09/22 08:16:21;;;;;;;18.10;5.67;;;14.70;99.90;;;;;;5045177;28;20215;-49
2021/09/22 08:18:49;;;;;;;19.13;6.30;;;14.70;99.90;;;;;;5035127;28;20218;-58
2021/09/22 08:21:16;;;;;;;16.90;6.00;;;14.80;99.90;;;;;;5041786;28;20222;-49
2021/09/22 08:23:43;;;;;;;12.27;5.87;;;14.90;99.90;;;;;;5036578;28;20203;-58
2021/09/22 08:26:10;;;;;;;16.57;6.07;;;15.00;99.90;;;;;;5028400;28;20236;-50
2021/09/22 08:28:37;;;;;;;12.53;5.27;;;15.10;99.90;;;;;;5039831;28;20218;-58
2021/09/22 08:31:04;;;;;;;14.03;5.57;;;15.10;99.90;;;;;;5039979;28;20250;-51
2021/09/22 08:33:31;;;;;;;17.77;5.60;;;15.20;99.90;;;;;;5039461;28;20199;-58
2021/09/22 08:35:59;;;;;;;13.37;4.47;;;15.30;99.90;;;;;;5037907;28;20203;-50
2021/09/22 08:38:26;;;;;;;15.70;5.17;;;15.30;99.90;;;;;;5043333;28;20579;-50
2021/09/22 08:40:53;;;;;;;18.57;5.37;;;15.40;99.90;;;;;;5035465;28;20198;-54
2021/09/22 08:43:23;;;;;;;17.97;4.80;;;15.40;99.90;;;;;;5035278;28;20199;-50
2021/09/22 08:45:50;;;;;;;13.97;5.23;;;15.50;99.90;;;;;;5032899;28;20282;-53
2021/09/22 08:48:17;;;;;;;15.50;4.80;;;15.60;99.90;;;;;;5042896;28;20203;-51
2021/09/22 08:50:44;;;;;;;14.73;4.80;;;15.70;99.90;;;;;;5038278;28;20223;-56
2021/09/22 08:53:12;;;;;;;11.30;4.33;;;15.70;99.90;;;;;;5047240;28;20194;-48
2021/09/22 08:55:38;;;;;;;21.50;6.97;;;15.80;99.90;;;;;;5035394;28;20684;-57
2021/09/22 08:58:05;;;;;;;15.27;4.00;;;15.80;99.90;;;;;;5027628;28;20223;-52
2021/09/22 09:00:32;;;;;;;15.00;3.70;;;15.90;99.90;;;;;;5044074;28;20533;-54
2021/09/22 09:02:58;;;;;;;17.50;4.67;;;15.90;99.90;;;;;;5030375;28;21831;-56
2021/09/22 09:05:25;;;;;;;13.90;4.10;;;15.90;99.90;;;;;;5040987;28;20766;-57
2021/09/22 09:07:55;;;;;;;7.83;3.87;;;16.00;99.90;;;;;;5039992;28;20821;-54
2021/09/22 09:10:26;;;;;;;7.70;3.67;;;16.10;99.90;;;;;;5035826;28;20210;-51
2021/09/22 09:13:03;;;;;;;12.00;3.83;;;16.10;99.90;;;;;;5037666;28;20203;-54
2021/09/22 09:15:33;;;;;;;10.53;4.03;;;16.10;99.90;;;;;;5023381;28;20203;-56
2021/09/22 09:18:01;;;;;;;9.07;4.23;;;16.10;99.90;;;;;;5046275;28;20226;-54
2021/09/22 09:20:30;;;;;;;12.67;3.97;;;16.10;99.90;;;;;;5038525;28;20199;-56
2021/09/22 09:23:07;;;;;;;12.43;4.47;;;16.10;99.90;;;;;;5046177;28;20192;-50
2021/09/22 09:25:38;;;;;;;13.80;4.53;;;16.10;99.90;;;;;;5023793;28;20188;-50
2021/09/22 09:28:32;;;;;;;12.03;4.17;;;16.30;99.90;;;;;;5045467;28;20711;-52
2021/09/22 09:31:01;;;;;;;8.90;3.77;;;16.40;99.90;;;;;;4996759;28;20235;-50
2021/09/22 09:33:41;;;;;;;8.80;3.90;;;16.40;99.90;;;;;;5039951;28;20221;-57
2021/09/22 09:36:15;;;;;;;8.27;3.50;;;16.50;99.90;;;;;;5047121;28;20219;-53
2021/09/22 09:38:47;;;;;;;10.17;3.67;;;16.50;99.90;;;;;;5040417;28;20213;-50
2021/09/22 09:41:24;;;;;;;9.63;3.73;;;16.40;99.90;;;;;;5043157;28;20194;-51
2021/09/22 09:43:51;;;;;;;11.57;3.90;;;16.50;99.90;;;;;;5051797;28;20198;-51
2021/09/22 09:46:22;;;;;;;7.57;4.30;;;16.70;99.90;;;;;;5019341;28;20238;-59
2021/09/22 09:49:00;;;;;;;15.10;4.60;;;16.80;99.90;;;;;;5026789;28;20443;-51
2021/09/22 09:51:35;;;;;;;8.93;4.10;;;16.90;99.90;;;;;;5034484;28;20230;-57
2021/09/22 09:54:11;;;;;;;10.80;4.60;;;17.00;99.90;;;;;;5043136;28;20191;-53
2021/09/22 09:56:39;;;;;;;6.80;4.20;;;17.00;99.90;;;;;;5033063;28;20221;-55
2021/09/22 09:59:06;;;;;;;10.43;5.33;;;17.00;99.90;;;;;;5038822;28;20202;-54
2021/09/22 10:01:38;;;;;;;10.97;4.57;;;16.90;99.90;;;;;;5026490;28;20199;-56
2021/09/22 10:04:06;;;;;;;10.37;4.33;;;16.90;99.90;;;;;;5040086;28;20218;-53
2021/09/22 10:06:33;;;;;;;10.70;4.23;;;16.90;99.90;;;;;;5047819;28;21001;-54
2021/09/22 10:09:00;;;;;;;7.77;4.10;;;16.90;99.90;;;;;;5044108;28;20652;-54
2021/09/22 10:11:28;;;;;;;8.73;4.73;;;17.00;99.90;;;;;;5035945;28;20212;-52
2021/09/22 10:13:57;;;;;;;7.23;4.73;;;17.10;99.90;;;;;;5042172;28;20282;-56
2021/09/22 10:16:24;;;;;;;12.07;4.47;;;17.10;99.90;;;;;;5029351;28;20226;-51
2021/09/22 10:18:51;;;;;;;7.17;4.00;;;17.10;99.90;;;;;;5036193;28;20222;-48
2021/09/22 10:21:20;;;;;;;8.50;3.23;;;17.10;99.90;;;;;;5037393;28;20191;-54
2021/09/22 10:23:49;;;;;;;9.10;3.90;;;17.10;99.90;;;;;;5040376;28;20202;-53
2021/09/22 10:26:16;;;;;;;8.87;3.23;;;17.10;99.90;;;;;;5023214;28;20970;-53
2021/09/22 10:28:46;;;;;;;12.20;3.23;;;17.00;99.90;;;;;;5032604;28;20195;-52
2021/09/22 10:31:33;;;;;;;10.73;3.60;;;16.90;99.90;;;;;;5024414;28;20226;-52
2021/09/22 10:34:00;;;;;;;8.23;3.10;;;16.80;99.90;;;;;;5048340;28;20284;-50
2021/09/22 10:36:35;;;;;;;6.97;3.23;;;16.80;99.90;;;;;;5031211;28;20210;-53
2021/09/22 10:39:03;;;;;;;6.40;3.60;;;16.90;99.90;;;;;;5045936;28;20197;-49
2021/09/22 10:41:33;;;;;;;10.20;3.63;;;16.90;99.90;;;;;;5033646;28;20904;-58
2021/09/22 10:44:00;;;;;;;11.10;3.50;;;16.90;99.90;;;;;;5043300;28;20202;-54
2021/09/22 10:46:31;;;;;;;7.30;2.80;;;16.90;99.90;;;;;;5024797;28;20284;-56
2021/09/22 10:49:14;;;;;;;10.50;3.00;;;16.90;99.90;;;;;;5028052;28;20207;-54
2021/09/22 10:51:48;;;;;;;7.70;3.30;;;16.90;99.90;;;;;;5030014;28;20230;-56
2021/09/22 10:54:18;;;;;;;9.80;3.03;;;16.90;99.90;;;;;;5039530;28;20281;-58
2021/09/22 10:56:56;;;;;;;5.17;2.63;;;16.80;99.90;;;;;;5037854;28;20444;-52
2021/09/22 10:59:29;;;;;;;8.27;3.67;;;16.80;99.90;;;;;;5034236;28;20209;-53
2021/09/22 11:01:57;;;;;;;6.63;3.27;;;16.80;99.90;;;;;;5040278;28;20846;-52
2021/09/22 11:04:24;;;;;;;11.00;2.93;;;16.90;99.90;;;;;;5022763;28;20204;-58
2021/09/22 11:07:00;;;;;;;4.60;3.10;;;17.10;99.90;;;;;;5032961;28;20250;-48
2021/09/22 11:09:35;;;;;;;8.80;3.20;;;17.30;99.90;;;;;;5041436;28;20758;-47
2021/09/22 11:12:09;;;;;;;7.40;3.23;;;17.30;99.90;;;;;;5040853;28;20215;-50
2021/09/22 11:14:38;;;;;;;5.03;3.00;;;17.30;99.90;;;;;;5040154;28;21812;-52
2021/09/22 11:17:08;;;;;;;9.87;3.33;;;17.20;99.90;;;;;;5053727;28;20261;-56
2021/09/22 11:19:37;;;;;;;6.13;3.20;;;17.20;99.90;;;;;;5036073;28;21375;-53
2021/09/22 11:22:06;;;;;;;5.17;3.20;;;17.30;99.90;;;;;;5037431;28;20531;-56
2021/09/22 11:24:34;;;;;;;5.47;3.40;;;17.40;99.90;;;;;;5033468;28;20211;-52
2021/09/22 11:27:03;;;;;;;7.97;3.03;;;17.40;99.90;;;;;;5045648;28;20223;-50
2021/09/22 11:29:32;;;;;;;5.07;2.90;;;17.50;99.90;;;;;;5038327;28;20207;-53
2021/09/22 11:31:59;;;;;;;8.70;3.80;;;17.60;99.90;;;;;;5042477;28;20219;-51
2021/09/22 11:34:28;;;;;;;5.57;3.40;;;17.80;99.90;;;;;;5043428;28;20203;-52
2021/09/22 11:37:09;;;;;;;6.47;3.57;;;17.90;99.90;;;;;;5030066;28;20590;-54
2021/09/22 11:39:36;;;;;;;7.90;3.83;;;17.90;99.90;;;;;;5037701;28;20238;-53
2021/09/22 11:42:03;;;;;;;4.80;3.27;;;18.00;99.90;;;;;;5042687;28;20206;-52
2021/09/22 11:44:32;;;;;;;5.70;3.43;;;18.10;99.90;;;;;;5039392;28;20196;-54
2021/09/22 11:47:01;;;;;;;9.07;3.57;;;18.00;99.90;;;;;;5045045;28;20572;-53
2021/09/22 11:49:34;;;;;;;7.17;2.83;;;18.10;99.90;;;;;;5037854;28;20283;-53
2021/09/22 11:52:05;;;;;;;8.17;3.20;;;18.20;99.90;;;;;;5029566;28;20222;-51
2021/09/22 11:54:34;;;;;;;4.53;3.10;;;18.20;99.90;;;;;;5021881;28;20199;-56
2021/09/22 11:57:10;;;;;;;5.87;2.90;;;18.20;99.90;;;;;;5044629;28;20304;-52
2021/09/22 11:59:37;;;;;;;5.90;3.10;;;18.30;99.90;;;;;;5032814;28;20202;-56
2021/09/22 12:02:04;;;;;;;5.90;3.37;;;18.30;99.90;;;;;;5043433;28;20205;-51
2021/09/22 12:04:35;;;;;;;9.13;3.40;;;18.20;99.90;;;;;;5038597;28;20943;-56
2021/09/22 12:07:04;;;;;;;7.67;3.00;;;18.20;99.90;;;;;;5035482;28;20215;-51
2021/09/22 12:09:41;;;;;;;11.10;4.07;;;18.20;99.90;;;;;;5032206;28;20207;-54
2021/09/22 12:12:10;;;;;;;4.23;2.73;;;18.20;99.90;;;;;;5048688;28;20906;-50
2021/09/22 12:14:39;;;;;;;6.23;3.27;;;18.40;99.90;;;;;;5041647;28;20227;-51
2021/09/22 12:17:07;;;;;;;5.17;2.83;;;18.40;99.90;;;;;;5039168;28;20242;-51
2021/09/22 12:19:37;;;;;;;5.50;3.63;;;18.50;99.90;;;;;;5048429;28;20538;-52
2021/09/22 12:22:04;;;;;;;6.37;3.40;;;18.60;99.90;;;;;;5034240;28;20200;-53
2021/09/22 12:24:33;;;;;;;5.77;3.47;;;18.50;99.90;;;;;;5044769;28;20208;-50
2021/09/22 12:27:01;;;;;;;5.77;3.27;;;18.60;99.90;;;;;;5045982;28;20215;-52
2021/09/22 12:29:28;;;;;;;5.20;2.93;;;18.60;99.90;;;;;;5037999;28;20766;-55
2021/09/22 12:31:56;;;;;;;3.67;2.37;;;18.60;99.90;;;;;;5037306;28;20215;-55
2021/09/22 12:34:24;;;;;;;10.60;3.60;;;18.60;99.90;;;;;;5039485;28;20195;-57
2021/09/22 12:36:54;;;;;;;5.17;2.70;;;18.70;99.90;;;;;;5040247;28;20231;-51
2021/09/22 12:39:23;;;;;;;6.47;2.93;;;18.70;99.90;;;;;;5024240;28;20211;-51
2021/09/22 12:42:01;;;;;;;6.03;2.70;;;18.70;99.90;;;;;;5043827;28;20205;-47
2021/09/22 12:44:29;;;;;;;8.40;2.60;;;18.80;99.90;;;;;;5038207;28;21765;-51
2021/09/22 12:46:56;;;;;;;8.20;2.63;;;18.90;99.90;;;;;;5034040;28;20227;-47
2021/09/22 12:49:24;;;;;;;5.30;2.67;;;18.90;99.90;;;;;;5030982;28;20696;-55
2021/09/22 12:51:54;;;;;;;4.53;2.23;;;18.80;99.90;;;;;;5042015;28;20246;-52
2021/09/22 12:54:22;;;;;;;4.97;2.40;;;18.80;99.90;;;;;;5030123;28;20560;-58
2021/09/22 12:56:49;;;;;;;5.60;2.37;;;18.80;99.90;;;;;;5031879;28;20230;-49
2021/09/22 12:59:20;;;;;;;6.47;2.70;;;18.90;99.90;;;;;;5038094;28;20208;-58
2021/09/22 13:01:51;;;;;;;5.67;2.67;;;19.00;99.90;;;;;;5033719;28;20227;-52